Terminal Aerodrome Forecast
Issued by NWS Boston, MA

Home | Current Version | Previous Version | Text Only | Print | Product List | Glossary On
Versions: 1 2 3 4 5 6 7 8 9 10 11 12 13 14 15 16 17 18 19 20 21 22 23 24 25 26 27 28 29 30 31 32 33 34 35 36 37 38 39 40 41 42 43 44 45 46
000
FTUS41 KBOX 100315 AAA
TAFPVD
TAF AMD
KPVD 100315Z 1003/1024 31011G20KT P6SM SKC
     FM100600 30010KT P6SM FEW050
     FM101500 30011G24KT P6SM SCT050
     FM102200 30007KT P6SM FEW090=

USA.gov is the U.S. government's official web portal to all federal, state and local government web resources and services.